createdAt,value
2023-11-26T00:02:15.112Z,98388.00
2023-11-26T00:04:46.110Z,98388.00
2023-11-26T00:07:17.264Z,98393.00
2023-11-26T00:09:48.390Z,98388.00
2023-11-26T00:12:19.337Z,98389.00
2023-11-26T00:14:50.363Z,98393.00
2023-11-26T00:17:25.474Z,98388.00
2023-11-26T00:19:56.541Z,98389.00
2023-11-26T00:22:29.521Z,98400.00
2023-11-26T00:25:01.202Z,98399.00
2023-11-26T00:27:32.182Z,98417.00
2023-11-26T00:30:04.482Z,98406.00
2023-11-26T00:32:36.180Z,98410.00
2023-11-26T00:35:07.677Z,98416.00
2023-11-26T00:37:38.599Z,98420.00
2023-11-26T00:40:10.702Z,98428.00
2023-11-26T00:42:41.666Z,98433.00
2023-11-26T00:45:12.717Z,98456.00
2023-11-26T00:47:43.780Z,98445.00
2023-11-26T00:50:15.601Z,98454.00
2023-11-26T00:52:47.165Z,98451.00
2023-11-26T00:55:18.351Z,98477.00
2023-11-26T00:57:50.908Z,98455.00
2023-11-26T01:00:22.019Z,98448.00
2023-11-26T01:02:53.007Z,98454.00
2023-11-26T01:05:24.086Z,98452.00
2023-11-26T01:07:55.031Z,98455.00
2023-11-26T01:10:26.356Z,98460.00
2023-11-26T01:12:57.355Z,98454.00
2023-11-26T01:15:28.489Z,98461.00
2023-11-26T01:17:59.473Z,98461.00
2023-11-26T01:20:30.695Z,98472.00
2023-11-26T01:23:01.708Z,98474.00
2023-11-26T01:25:32.827Z,98481.00
2023-11-26T01:28:03.867Z,98484.00
2023-11-26T01:30:34.816Z,98482.00
2023-11-26T01:33:06.128Z,98488.00
2023-11-26T01:35:37.242Z,98494.00
2023-11-26T01:38:08.399Z,98499.00
2023-11-26T01:40:40.028Z,98496.00
2023-11-26T01:43:11.027Z,98488.00
2023-11-26T01:45:42.051Z,98507.00
2023-11-26T01:48:17.120Z,98498.00
2023-11-26T01:50:48.091Z,98507.00
2023-11-26T01:53:19.120Z,98504.00
2023-11-26T01:55:50.567Z,98510.00
2023-11-26T01:58:21.629Z,98513.00
2023-11-26T02:00:53.658Z,98520.00
2023-11-26T02:03:24.748Z,98506.00
2023-11-26T02:05:55.789Z,98519.00
2023-11-26T02:08:28.178Z,98515.00
2023-11-26T02:11:00.582Z,98519.00
2023-11-26T02:13:31.963Z,98523.00
2023-11-26T02:16:02.924Z,98515.00
2023-11-26T02:18:33.843Z,98512.00
2023-11-26T02:21:05.210Z,98516.00
2023-11-26T02:23:40.317Z,98508.00
2023-11-26T02:26:11.512Z,98514.00
2023-11-26T02:28:43.774Z,98517.00
2023-11-26T02:31:14.902Z,98513.00
2023-11-26T02:33:54.771Z,98515.00
2023-11-26T02:36:28.064Z,98520.00
2023-11-26T02:38:59.381Z,98521.00
2023-11-26T02:41:30.416Z,98520.00
2023-11-26T02:44:01.327Z,98529.00
2023-11-26T02:46:32.610Z,98534.00
2023-11-26T02:49:04.826Z,98536.00
2023-11-26T02:51:36.251Z,98536.00
2023-11-26T02:54:07.187Z,98527.00
2023-11-26T02:56:38.277Z,98530.00
2023-11-26T02:59:10.808Z,98537.00
2023-11-26T03:01:41.915Z,98539.00
2023-11-26T03:04:14.904Z,98539.00
2023-11-26T03:06:48.089Z,98534.00
2023-11-26T03:09:34.555Z,98540.00
2023-11-26T03:12:24.326Z,98526.00
2023-11-26T03:14:55.347Z,98530.00
2023-11-26T03:17:27.036Z,98542.00
2023-11-26T03:19:58.129Z,98541.00
2023-11-26T03:22:29.051Z,98538.00
2023-11-26T03:24:59.999Z,98540.00
2023-11-26T03:27:30.888Z,98536.00
2023-11-26T03:30:02.247Z,98546.00
2023-11-26T03:32:33.501Z,98540.00
2023-11-26T03:35:05.162Z,98535.00
2023-11-26T03:37:36.131Z,98540.00
2023-11-26T03:40:08.900Z,98535.00
2023-11-26T03:42:40.408Z,98531.00
2023-11-26T03:45:12.819Z,98535.00
2023-11-26T03:47:43.827Z,98542.00
2023-11-26T03:50:15.092Z,98541.00
2023-11-26T03:52:46.551Z,98539.00
2023-11-26T03:55:17.614Z,98539.00
2023-11-26T03:57:48.496Z,98548.00
2023-11-26T04:00:19.806Z,98538.00
2023-11-26T04:02:51.195Z,98536.00
2023-11-26T04:05:22.292Z,98541.00
2023-11-26T04:07:53.227Z,98543.00
2023-11-26T04:10:28.120Z,98547.00
2023-11-26T04:13:06.472Z,98549.00
2023-11-26T04:15:45.010Z,98541.00
2023-11-26T04:18:16.835Z,98560.00
2023-11-26T04:20:48.636Z,98566.00
2023-11-26T04:23:19.646Z,98559.00
2023-11-26T04:25:50.737Z,98567.00
2023-11-26T04:28:21.963Z,98562.00
2023-11-26T04:30:53.174Z,98566.00
2023-11-26T04:33:24.997Z,98563.00
2023-11-26T04:35:56.050Z,98568.00
2023-11-26T04:38:28.646Z,98563.00
2023-11-26T04:40:59.724Z,98568.00
2023-11-26T04:43:30.668Z,98572.00
2023-11-26T04:46:01.599Z,98580.00
2023-11-26T04:48:32.514Z,98591.00
2023-11-26T04:51:03.880Z,98602.00
2023-11-26T04:53:34.855Z,98593.00
2023-11-26T04:56:06.411Z,98595.00
2023-11-26T04:58:38.130Z,98599.00
2023-11-26T05:01:09.588Z,98601.00
2023-11-26T05:03:41.025Z,98603.00
2023-11-26T05:06:14.498Z,98613.00
2023-11-26T05:08:45.513Z,98613.00
2023-11-26T05:11:17.935Z,98613.00
2023-11-26T05:13:49.934Z,98620.00
2023-11-26T05:16:20.829Z,98616.00
2023-11-26T05:18:51.900Z,98623.00
2023-11-26T05:21:23.119Z,98630.00
2023-11-26T05:23:54.108Z,98631.00
2023-11-26T05:26:25.189Z,98630.00
2023-11-26T05:28:56.747Z,98631.00
2023-11-26T05:31:27.890Z,98631.00
2023-11-26T05:33:59.135Z,98628.00
2023-11-26T05:36:30.067Z,98626.00
2023-11-26T05:39:01.005Z,98627.00
2023-11-26T05:41:34.000Z,98631.00
2023-11-26T05:44:05.861Z,98629.00
2023-11-26T05:46:36.997Z,98635.00
2023-11-26T05:49:07.999Z,98639.00
2023-11-26T05:51:39.112Z,98642.00
2023-11-26T05:54:10.153Z,98634.00
2023-11-26T05:56:46.571Z,98639.00
2023-11-26T05:59:18.148Z,98642.00
2023-11-26T06:01:49.057Z,98647.00
2023-11-26T06:04:19.965Z,98653.00
2023-11-26T06:06:51.551Z,98646.00
2023-11-26T06:09:23.347Z,98653.00
2023-11-26T06:11:54.333Z,98653.00
2023-11-26T06:14:25.396Z,98662.00
2023-11-26T06:16:56.408Z,98653.00
2023-11-26T06:19:27.293Z,98656.00
2023-11-26T06:21:58.194Z,98680.00
2023-11-26T06:24:29.305Z,98666.00
2023-11-26T06:27:01.141Z,98655.00
2023-11-26T06:29:32.163Z,98662.00
2023-11-26T06:32:03.286Z,98666.00
2023-11-26T06:34:34.305Z,98659.00
2023-11-26T06:37:06.446Z,98662.00
2023-11-26T06:39:37.685Z,98668.00
2023-11-26T06:42:08.756Z,98670.00
2023-11-26T06:44:39.710Z,98670.00
2023-11-26T06:47:10.699Z,98690.00
2023-11-26T06:49:41.652Z,98664.00
2023-11-26T06:52:12.580Z,98677.00
2023-11-26T06:54:43.846Z,98665.00
2023-11-26T06:57:14.867Z,98683.00
2023-11-26T06:59:45.780Z,98682.00
2023-11-26T07:02:16.845Z,98679.00
2023-11-26T07:04:47.951Z,98690.00
2023-11-26T07:07:22.369Z,98686.00
2023-11-26T07:09:53.778Z,98690.00
2023-11-26T07:12:24.863Z,98686.00
2023-11-26T07:14:56.868Z,98688.00
2023-11-26T07:17:29.205Z,98695.00
2023-11-26T07:20:00.208Z,98695.00
2023-11-26T07:22:31.332Z,98694.00
2023-11-26T07:25:02.767Z,98692.00
2023-11-26T07:27:33.897Z,98715.00
2023-11-26T07:30:05.808Z,98721.00
2023-11-26T07:32:39.452Z,98718.00
2023-11-26T07:35:10.622Z,98726.00
2023-11-26T07:37:41.917Z,98750.00
2023-11-26T07:40:16.796Z,98728.00
2023-11-26T07:42:47.747Z,98726.00
2023-11-26T07:45:18.921Z,98728.00
2023-11-26T07:47:50.328Z,98733.00
2023-11-26T07:50:24.233Z,98735.00
2023-11-26T07:52:55.783Z,98729.00
2023-11-26T07:55:28.372Z,98735.00
2023-11-26T07:58:00.609Z,98731.00
2023-11-26T08:00:32.273Z,98733.00
2023-11-26T08:03:03.584Z,98734.00
2023-11-26T08:05:38.196Z,98732.00
2023-11-26T08:08:09.276Z,98740.00
2023-11-26T08:10:40.257Z,98733.00
2023-11-26T08:13:12.985Z,98733.00
2023-11-26T08:15:44.108Z,98747.00
2023-11-26T08:18:16.959Z,98751.00
2023-11-26T08:20:48.284Z,98738.00
2023-11-26T08:23:19.464Z,98741.00
2023-11-26T08:25:54.808Z,98751.00
2023-11-26T08:28:33.337Z,98749.00
2023-11-26T08:31:04.392Z,98737.00
2023-11-26T08:33:42.502Z,98750.00
2023-11-26T08:36:17.311Z,98740.00
2023-11-26T08:38:49.347Z,98765.00
2023-11-26T08:41:22.807Z,98743.00
2023-11-26T08:43:57.142Z,98737.00
2023-11-26T08:46:28.815Z,98742.00
2023-11-26T08:48:59.867Z,98746.00
2023-11-26T08:51:36.538Z,98736.00
2023-11-26T08:54:07.797Z,98737.00
2023-11-26T08:56:39.111Z,98736.00
2023-11-26T08:59:10.044Z,98739.00
2023-11-26T09:01:41.838Z,98743.00
2023-11-26T09:04:13.007Z,98743.00
2023-11-26T09:06:44.103Z,98734.00
2023-11-26T09:09:15.189Z,98742.00
2023-11-26T09:11:48.380Z,98760.00
2023-11-26T09:14:19.555Z,98744.00
2023-11-26T09:16:51.720Z,98751.00
2023-11-26T09:19:22.741Z,98750.00
2023-11-26T09:21:53.764Z,98746.00
2023-11-26T09:24:24.749Z,98747.00
2023-11-26T09:26:55.849Z,98747.00
2023-11-26T09:29:33.074Z,98749.00
2023-11-26T09:32:05.016Z,98747.00
2023-11-26T09:34:36.079Z,98754.00
2023-11-26T09:37:07.152Z,98752.00
2023-11-26T09:39:38.550Z,98751.00
2023-11-26T09:42:13.795Z,98757.00
2023-11-26T09:44:46.427Z,98770.00
2023-11-26T09:47:19.539Z,98761.00
2023-11-26T09:49:53.022Z,98760.00
2023-11-26T09:52:26.352Z,98763.00
2023-11-26T09:54:59.041Z,98766.00
2023-11-26T09:57:31.056Z,98753.00
2023-11-26T10:00:07.440Z,98798.00
2023-11-26T10:02:39.203Z,98763.00
2023-11-26T10:05:24.783Z,98761.00
2023-11-26T10:07:56.040Z,98762.00
2023-11-26T10:10:27.192Z,98763.00
2023-11-26T10:13:06.029Z,98765.00
2023-11-26T10:15:43.949Z,98753.00
2023-11-26T10:18:16.264Z,98753.00
2023-11-26T10:20:51.847Z,98775.00
2023-11-26T10:23:27.037Z,98744.00
2023-11-26T10:25:58.100Z,98739.00
2023-11-26T10:28:29.377Z,98747.00
2023-11-26T10:31:07.012Z,98742.00
2023-11-26T10:33:38.040Z,98729.00
2023-11-26T10:36:09.401Z,98718.00
2023-11-26T10:38:40.706Z,98715.00
2023-11-26T10:41:11.880Z,98718.00
2023-11-26T10:43:48.990Z,98719.00
2023-11-26T10:46:26.353Z,98720.00
2023-11-26T10:49:14.333Z,98711.00
2023-11-26T10:51:57.669Z,98708.00
2023-11-26T10:54:39.948Z,98698.00
2023-11-26T10:57:14.623Z,98707.00
2023-11-26T10:59:50.108Z,98704.00
2023-11-26T11:02:21.768Z,98704.00
2023-11-26T11:04:53.015Z,98704.00
2023-11-26T11:07:25.024Z,98727.00
2023-11-26T11:10:37.029Z,98689.00
2023-11-26T11:13:14.591Z,98698.00
2023-11-26T11:15:46.747Z,98684.00
2023-11-26T11:18:47.484Z,98686.00
2023-11-26T11:21:19.472Z,98698.00
2023-11-26T11:23:54.159Z,98702.00
2023-11-26T11:26:26.582Z,98694.00
2023-11-26T11:29:01.372Z,98698.00
2023-11-26T11:31:52.797Z,98692.00
2023-11-26T11:34:23.893Z,98697.00
2023-11-26T11:36:57.229Z,98692.00
2023-11-26T11:39:45.890Z,98688.00
2023-11-26T11:42:23.286Z,98693.00
2023-11-26T11:44:54.913Z,98698.00
2023-11-26T11:47:43.477Z,98700.00
2023-11-26T11:50:16.280Z,98691.00
2023-11-26T11:52:55.662Z,98690.00
2023-11-26T11:55:39.838Z,98687.00
2023-11-26T11:58:15.047Z,98686.00
2023-11-26T12:00:50.013Z,98693.00
2023-11-26T12:03:24.793Z,98691.00
2023-11-26T12:06:11.211Z,98681.00
2023-11-26T12:08:42.161Z,98679.00
2023-11-26T12:11:13.111Z,98688.00
2023-11-26T12:13:44.249Z,98685.00
2023-11-26T12:16:17.721Z,98681.00
2023-11-26T12:18:58.688Z,98683.00
2023-11-26T12:21:30.866Z,98681.00
2023-11-26T12:24:01.850Z,98689.00
2023-11-26T12:26:37.172Z,98681.00
2023-11-26T12:29:08.209Z,98680.00
2023-11-26T12:31:40.917Z,98676.00
2023-11-26T12:34:12.861Z,98668.00
2023-11-26T12:36:44.156Z,98670.00
2023-11-26T12:39:19.748Z,98672.00
2023-11-26T12:41:51.277Z,98665.00
2023-11-26T12:44:23.024Z,98653.00
2023-11-26T12:47:13.274Z,98660.00
2023-11-26T12:50:00.401Z,98652.00
2023-11-26T12:52:35.431Z,98658.00
2023-11-26T12:55:08.859Z,98655.00
2023-11-26T12:57:40.634Z,98649.00
2023-11-26T13:00:13.995Z,98635.00
2023-11-26T13:02:49.846Z,98636.00
2023-11-26T13:05:30.219Z,98621.00
2023-11-26T13:08:01.759Z,98643.00
2023-11-26T13:10:55.869Z,98635.00
2023-11-26T13:13:32.814Z,98640.00
2023-11-26T13:16:05.338Z,98644.00
2023-11-26T13:18:36.511Z,98647.00
2023-11-26T13:21:08.064Z,98646.00
2023-11-26T13:23:38.982Z,98639.00
2023-11-26T13:26:11.254Z,98649.00
2023-11-26T13:28:42.303Z,98646.00
2023-11-26T13:31:13.805Z,98639.00
2023-11-26T13:33:48.295Z,98639.00
2023-11-26T13:36:19.660Z,98634.00
2023-11-26T13:38:50.626Z,98637.00
2023-11-26T13:41:23.701Z,98644.00
2023-11-26T13:43:56.817Z,98633.00
2023-11-26T13:46:31.791Z,98641.00
2023-11-26T13:49:07.827Z,98631.00
2023-11-26T13:51:38.917Z,98634.00
2023-11-26T13:54:10.248Z,98642.00
2023-11-26T13:56:43.057Z,98630.00
2023-11-26T13:59:14.013Z,98633.00
2023-11-26T14:01:45.831Z,98638.00
2023-11-26T14:04:16.961Z,98635.00
2023-11-26T14:06:48.294Z,98636.00
2023-11-26T14:09:20.584Z,98658.00
2023-11-26T14:11:56.062Z,98629.00
2023-11-26T14:14:29.091Z,98633.00
2023-11-26T14:17:00.079Z,98632.00
2023-11-26T14:19:33.580Z,98633.00
2023-11-26T14:22:05.544Z,98628.00
2023-11-26T14:24:38.872Z,98631.00
2023-11-26T14:27:09.908Z,98629.00
2023-11-26T14:29:40.847Z,98632.00
2023-11-26T14:32:11.861Z,98640.00
2023-11-26T14:34:42.844Z,98633.00
2023-11-26T14:37:13.784Z,98635.00
2023-11-26T14:39:46.005Z,98633.00
2023-11-26T14:42:16.977Z,98627.00
2023-11-26T14:44:48.099Z,98634.00
2023-11-26T14:47:19.572Z,98644.00
2023-11-26T14:49:50.529Z,98637.00
2023-11-26T14:52:21.444Z,98631.00
2023-11-26T14:54:52.479Z,98634.00
2023-11-26T14:57:23.525Z,98641.00
2023-11-26T14:59:59.894Z,98644.00
2023-11-26T15:02:30.998Z,98647.00
2023-11-26T15:05:02.083Z,98642.00
2023-11-26T15:07:33.008Z,98650.00
2023-11-26T15:10:05.494Z,98657.00
2023-11-26T15:12:36.588Z,98651.00
2023-11-26T15:15:10.485Z,98647.00
2023-11-26T15:17:42.749Z,98660.00
2023-11-26T15:20:14.593Z,98659.00
2023-11-26T15:22:45.723Z,98654.00
2023-11-26T15:25:16.760Z,98648.00
2023-11-26T15:27:47.785Z,98644.00
2023-11-26T15:30:18.736Z,98647.00
2023-11-26T15:32:49.773Z,98641.00
2023-11-26T15:35:20.787Z,98640.00
2023-11-26T15:37:53.205Z,98635.00
2023-11-26T15:40:24.108Z,98637.00
2023-11-26T15:42:54.997Z,98636.00
2023-11-26T15:45:25.910Z,98638.00
2023-11-26T15:47:56.917Z,98636.00
2023-11-26T15:50:28.427Z,98639.00
2023-11-26T15:53:00.432Z,98635.00
2023-11-26T15:55:32.111Z,98634.00
2023-11-26T15:58:03.117Z,98628.00
2023-11-26T16:00:34.188Z,98652.00
2023-11-26T16:03:05.149Z,98621.00
2023-11-26T16:05:38.093Z,98620.00
2023-11-26T16:08:09.664Z,98628.00
2023-11-26T16:10:40.991Z,98620.00
2023-11-26T16:13:12.138Z,98618.00
2023-11-26T16:15:43.126Z,98644.00
2023-11-26T16:18:14.251Z,98634.00
2023-11-26T16:20:47.320Z,98631.00
2023-11-26T16:23:18.253Z,98630.00
2023-11-26T16:25:49.173Z,98631.00
2023-11-26T16:28:20.744Z,98636.00
2023-11-26T16:30:51.746Z,98639.00
2023-11-26T16:33:53.545Z,98640.00
2023-11-26T16:36:25.391Z,98639.00
2023-11-26T16:38:56.412Z,98642.00
2023-11-26T16:41:27.401Z,98635.00
2023-11-26T16:43:58.411Z,98626.00
2023-11-26T16:46:29.521Z,98628.00
2023-11-26T16:49:03.413Z,98623.00
2023-11-26T16:51:34.525Z,98630.00
2023-11-26T16:54:05.640Z,98634.00
2023-11-26T16:56:36.615Z,98626.00
2023-11-26T16:59:07.590Z,98626.00
2023-11-26T17:01:38.644Z,98620.00
2023-11-26T17:04:10.097Z,98624.00
2023-11-26T17:06:45.376Z,98625.00
2023-11-26T17:09:17.320Z,98628.00
2023-11-26T17:11:48.258Z,98618.00
2023-11-26T17:14:19.220Z,98627.00
2023-11-26T17:16:50.404Z,98630.00
2023-11-26T17:19:21.783Z,98625.00
2023-11-26T17:21:53.154Z,98612.00
2023-11-26T17:24:24.119Z,98614.00
2023-11-26T17:26:55.647Z,98619.00
2023-11-26T17:29:26.533Z,98611.00
2023-11-26T17:31:58.552Z,98619.00
2023-11-26T17:34:29.518Z,98630.00
2023-11-26T17:37:00.503Z,98634.00
2023-11-26T17:39:31.554Z,98624.00
2023-11-26T17:42:02.583Z,98623.00
2023-11-26T17:44:33.472Z,98614.00
2023-11-26T17:47:09.126Z,98618.00
2023-11-26T17:49:44.426Z,98610.00
2023-11-26T17:52:15.593Z,98616.00
2023-11-26T17:54:47.202Z,98621.00
2023-11-26T17:57:19.648Z,98620.00
2023-11-26T17:59:50.739Z,98625.00
2023-11-26T18:02:24.166Z,98620.00
2023-11-26T18:04:56.170Z,98610.00
2023-11-26T18:07:27.426Z,98621.00
2023-11-26T18:09:59.791Z,98623.00
2023-11-26T18:12:30.812Z,98613.00
2023-11-26T18:15:02.182Z,98612.00
2023-11-26T18:17:33.330Z,98612.00
2023-11-26T18:20:04.910Z,98612.00
2023-11-26T18:22:38.734Z,98614.00
2023-11-26T18:25:11.251Z,98626.00
2023-11-26T18:27:42.992Z,98608.00
2023-11-26T18:30:14.612Z,98618.00
2023-11-26T18:32:45.717Z,98613.00
2023-11-26T18:35:16.661Z,98618.00
2023-11-26T18:37:48.539Z,98612.00
2023-11-26T18:40:19.634Z,98617.00
2023-11-26T18:42:53.372Z,98614.00
2023-11-26T18:45:24.433Z,98614.00
2023-11-26T18:47:55.862Z,98617.00
2023-11-26T18:50:26.806Z,98613.00
2023-11-26T18:52:57.757Z,98605.00
2023-11-26T18:55:28.691Z,98616.00
2023-11-26T18:57:59.707Z,98605.00
2023-11-26T19:00:30.755Z,98610.00
2023-11-26T19:03:05.799Z,98608.00
2023-11-26T19:05:36.993Z,98604.00
2023-11-26T19:08:08.118Z,98608.00
2023-11-26T19:10:41.167Z,98603.00
2023-11-26T19:13:12.254Z,98606.00
2023-11-26T19:15:44.052Z,98611.00
2023-11-26T19:18:15.165Z,98606.00
2023-11-26T19:20:46.072Z,98601.00
2023-11-26T19:23:17.466Z,98603.00
2023-11-26T19:25:48.394Z,98606.00
2023-11-26T19:28:20.231Z,98610.00
2023-11-26T19:30:51.184Z,98608.00
2023-11-26T19:33:22.225Z,98611.00
2023-11-26T19:35:54.412Z,98608.00
2023-11-26T19:38:26.348Z,98610.00
2023-11-26T19:40:57.414Z,98608.00
2023-11-26T19:43:29.086Z,98610.00
2023-11-26T19:46:01.448Z,98608.00
2023-11-26T19:48:32.646Z,98608.00
2023-11-26T19:51:09.561Z,98619.00
2023-11-26T19:53:41.473Z,98616.00
2023-11-26T19:56:13.140Z,98615.00
2023-11-26T19:58:45.755Z,98605.00
2023-11-26T20:01:18.087Z,98608.00
2023-11-26T20:03:49.475Z,98606.00
2023-11-26T20:06:20.607Z,98605.00
2023-11-26T20:08:51.640Z,98612.00
2023-11-26T20:11:24.403Z,98618.00
2023-11-26T20:13:55.421Z,98610.00
2023-11-26T20:16:26.541Z,98612.00
2023-11-26T20:18:57.663Z,98615.00
2023-11-26T20:21:31.241Z,98610.00
2023-11-26T20:24:02.159Z,98606.00
2023-11-26T20:26:33.183Z,98602.00
2023-11-26T20:29:05.966Z,98606.00
2023-11-26T20:31:37.402Z,98617.00
2023-11-26T20:34:08.619Z,98600.00
2023-11-26T20:36:39.728Z,98587.00
2023-11-26T20:39:10.654Z,98592.00
2023-11-26T20:41:41.640Z,98588.00
2023-11-26T20:44:12.675Z,98587.00
2023-11-26T20:46:43.866Z,98581.00
2023-11-26T20:49:14.833Z,98595.00
2023-11-26T20:51:45.775Z,98585.00
2023-11-26T20:54:16.772Z,98580.00
2023-11-26T20:56:47.833Z,98578.00
2023-11-26T20:59:24.268Z,98571.00
2023-11-26T21:01:56.299Z,98562.00
2023-11-26T21:04:27.868Z,98568.00
2023-11-26T21:06:58.969Z,98564.00
2023-11-26T21:09:29.960Z,98564.00
2023-11-26T21:12:01.881Z,98568.00
2023-11-26T21:14:33.018Z,98566.00
2023-11-26T21:17:05.162Z,98560.00
2023-11-26T21:19:36.566Z,98556.00
2023-11-26T21:22:09.513Z,98557.00
2023-11-26T21:24:40.698Z,98558.00
2023-11-26T21:27:11.740Z,98544.00
2023-11-26T21:29:43.085Z,98555.00
2023-11-26T21:32:16.964Z,98574.00
2023-11-26T21:34:48.221Z,98534.00
2023-11-26T21:37:19.274Z,98531.00
2023-11-26T21:39:50.441Z,98539.00
2023-11-26T21:42:21.764Z,98528.00
2023-11-26T21:44:52.800Z,98528.00
2023-11-26T21:47:23.985Z,98528.00
2023-11-26T21:49:55.359Z,98531.00
2023-11-26T21:52:26.412Z,98521.00
2023-11-26T21:54:57.958Z,98521.00
2023-11-26T21:58:00.046Z,98513.00
2023-11-26T22:01:57.878Z,98509.00
2023-11-26T22:04:53.762Z,98500.00
2023-11-26T22:07:34.437Z,98512.00
2023-11-26T22:18:05.239Z,98490.00
2023-11-26T22:20:23.924Z,98499.00
2023-11-26T22:23:43.532Z,98490.00
2023-11-26T22:26:21.174Z,98479.00
2023-11-26T22:33:25.972Z,98480.00
2023-11-26T22:36:32.861Z,98464.00
2023-11-26T22:43:09.382Z,98468.00
2023-11-26T22:45:40.468Z,98475.00
2023-11-26T22:48:11.406Z,98477.00
2023-11-26T22:50:51.023Z,98478.00
2023-11-26T22:53:23.770Z,98484.00
2023-11-26T22:55:54.694Z,98483.00
2023-11-26T22:58:25.624Z,98477.00
2023-11-26T23:00:56.592Z,98480.00
2023-11-26T23:03:36.577Z,98478.00
2023-11-26T23:06:09.663Z,98470.00
2023-11-26T23:08:41.230Z,98474.00
2023-11-26T23:11:12.293Z,98479.00
2023-11-26T23:13:43.248Z,98478.00
2023-11-26T23:16:17.971Z,98467.00
2023-11-26T23:18:50.474Z,98467.00
2023-11-26T23:21:21.582Z,98463.00
2023-11-26T23:23:53.439Z,98459.00
2023-11-26T23:26:24.595Z,98469.00
2023-11-26T23:28:55.526Z,98450.00
2023-11-26T23:31:27.129Z,98444.00
2023-11-26T23:33:58.163Z,98457.00
2023-11-26T23:36:29.194Z,98448.00
2023-11-26T23:39:00.234Z,98444.00
2023-11-26T23:41:31.181Z,98438.00
2023-11-26T23:44:02.151Z,98447.00
2023-11-26T23:46:33.238Z,98438.00
2023-11-26T23:49:06.486Z,98436.00
2023-11-26T23:51:38.325Z,98433.00
2023-11-26T23:54:10.228Z,98454.00
2023-11-26T23:56:41.134Z,98438.00
2023-11-26T23:59:12.150Z,98427.00
